sensor_id;sensor_type;location;lat;lon;timestamp;P1;durP1;ratioP1;P2;durP2;ratioP2
79583;SDS011;69053;57.338;18.700;2023-05-10T00:01:02;8.45;;;5.65;;
79583;SDS011;69053;57.338;18.700;2023-05-10T00:06:02;12.27;;;5.80;;
79583;SDS011;69053;57.338;18.700;2023-05-10T00:11:03;9.23;;;5.70;;
79583;SDS011;69053;57.338;18.700;2023-05-10T00:16:03;12.57;;;5.72;;
79583;SDS011;69053;57.338;18.700;2023-05-10T00:21:05;11.07;;;5.80;;
79583;SDS011;69053;57.338;18.700;2023-05-10T00:26:05;9.57;;;5.68;;
79583;SDS011;69053;57.338;18.700;2023-05-10T00:31:06;9.05;;;5.85;;
79583;SDS011;69053;57.338;18.700;2023-05-10T00:36:06;7.43;;;5.10;;
79583;SDS011;69053;57.338;18.700;2023-05-10T00:41:07;7.85;;;4.68;;
79583;SDS011;69053;57.338;18.700;2023-05-10T00:46:08;7.07;;;4.60;;
79583;SDS011;69053;57.338;18.700;2023-05-10T00:51:09;9.68;;;5.13;;
79583;SDS011;69053;57.338;18.700;2023-05-10T00:56:10;7.05;;;5.10;;
79583;SDS011;69053;57.338;18.700;2023-05-10T01:01:10;8.35;;;4.40;;
79583;SDS011;69053;57.338;18.700;2023-05-10T01:06:12;8.02;;;4.82;;
79583;SDS011;69053;57.338;18.700;2023-05-10T01:11:13;8.13;;;4.80;;
79583;SDS011;69053;57.338;18.700;2023-05-10T01:16:14;6.22;;;4.18;;
79583;SDS011;69053;57.338;18.700;2023-05-10T01:32:04;6.00;;;4.32;;
79583;SDS011;69053;57.338;18.700;2023-05-10T01:37:18;6.13;;;4.30;;
79583;SDS011;69053;57.338;18.700;2023-05-10T01:42:25;7.13;;;4.30;;
79583;SDS011;69053;57.338;18.700;2023-05-10T01:47:35;7.95;;;4.55;;
79583;SDS011;69053;57.338;18.700;2023-05-10T01:52:44;8.70;;;5.05;;
79583;SDS011;69053;57.338;18.700;2023-05-10T01:57:59;8.20;;;4.38;;
79583;SDS011;69053;57.338;18.700;2023-05-10T02:03:06;8.55;;;3.85;;
79583;SDS011;69053;57.338;18.700;2023-05-10T02:08:08;7.38;;;4.13;;
79583;SDS011;69053;57.338;18.700;2023-05-10T02:13:09;7.72;;;3.60;;
79583;SDS011;69053;57.338;18.700;2023-05-10T02:18:11;11.60;;;4.38;;
79583;SDS011;69053;57.338;18.700;2023-05-10T02:23:13;6.15;;;3.97;;
79583;SDS011;69053;57.338;18.700;2023-05-10T02:28:16;5.85;;;3.90;;
79583;SDS011;69053;57.338;18.700;2023-05-10T02:33:18;7.82;;;4.72;;
79583;SDS011;69053;57.338;18.700;2023-05-10T02:38:20;8.60;;;3.83;;
79583;SDS011;69053;57.338;18.700;2023-05-10T02:43:23;7.80;;;3.95;;
79583;SDS011;69053;57.338;18.700;2023-05-10T02:48:24;6.38;;;4.30;;
79583;SDS011;69053;57.338;18.700;2023-05-10T02:53:30;8.18;;;4.43;;
79583;SDS011;69053;57.338;18.700;2023-05-10T02:58:32;10.48;;;3.88;;
79583;SDS011;69053;57.338;18.700;2023-05-10T03:03:33;10.63;;;4.35;;
79583;SDS011;69053;57.338;18.700;2023-05-10T03:08:33;7.78;;;4.38;;
79583;SDS011;69053;57.338;18.700;2023-05-10T03:19:02;8.75;;;4.15;;
79583;SDS011;69053;57.338;18.700;2023-05-10T03:24:13;6.00;;;4.25;;
79583;SDS011;69053;57.338;18.700;2023-05-10T03:29:15;8.65;;;4.18;;
79583;SDS011;69053;57.338;18.700;2023-05-10T03:34:22;8.13;;;4.38;;
79583;SDS011;69053;57.338;18.700;2023-05-10T03:39:23;6.65;;;3.72;;
79583;SDS011;69053;57.338;18.700;2023-05-10T03:44:24;6.80;;;4.15;;
79583;SDS011;69053;57.338;18.700;2023-05-10T03:49:25;9.88;;;4.07;;
79583;SDS011;69053;57.338;18.700;2023-05-10T03:54:25;6.90;;;4.15;;
79583;SDS011;69053;57.338;18.700;2023-05-10T03:59:26;6.38;;;4.00;;
79583;SDS011;69053;57.338;18.700;2023-05-10T04:04:26;4.55;;;3.60;;
79583;SDS011;69053;57.338;18.700;2023-05-10T04:09:27;7.68;;;3.55;;
79583;SDS011;69053;57.338;18.700;2023-05-10T04:14:28;5.38;;;3.38;;
79583;SDS011;69053;57.338;18.700;2023-05-10T04:19:29;8.18;;;4.20;;
79583;SDS011;69053;57.338;18.700;2023-05-10T04:24:30;7.20;;;3.80;;
79583;SDS011;69053;57.338;18.700;2023-05-10T04:29:31;8.02;;;4.70;;
79583;SDS011;69053;57.338;18.700;2023-05-10T04:34:31;6.60;;;3.67;;
79583;SDS011;69053;57.338;18.700;2023-05-10T04:39:34;7.55;;;3.63;;
79583;SDS011;69053;57.338;18.700;2023-05-10T04:44:35;6.25;;;3.90;;
79583;SDS011;69053;57.338;18.700;2023-05-10T04:49:36;8.18;;;3.53;;
79583;SDS011;69053;57.338;18.700;2023-05-10T04:54:37;9.15;;;4.43;;
79583;SDS011;69053;57.338;18.700;2023-05-10T04:59:37;7.90;;;4.10;;
79583;SDS011;69053;57.338;18.700;2023-05-10T05:04:38;6.15;;;3.58;;
79583;SDS011;69053;57.338;18.700;2023-05-10T05:09:39;6.40;;;3.95;;
79583;SDS011;69053;57.338;18.700;2023-05-10T05:14:40;6.63;;;3.63;;
79583;SDS011;69053;57.338;18.700;2023-05-10T05:19:41;7.35;;;4.65;;
79583;SDS011;69053;57.338;18.700;2023-05-10T05:24:45;5.90;;;3.80;;
79583;SDS011;69053;57.338;18.700;2023-05-10T05:29:45;7.20;;;4.55;;
79583;SDS011;69053;57.338;18.700;2023-05-10T05:34:46;10.88;;;4.50;;
79583;SDS011;69053;57.338;18.700;2023-05-10T05:39:47;5.00;;;3.42;;
79583;SDS011;69053;57.338;18.700;2023-05-10T05:44:47;7.57;;;3.80;;
79583;SDS011;69053;57.338;18.700;2023-05-10T05:49:48;8.02;;;3.47;;
79583;SDS011;69053;57.338;18.700;2023-05-10T05:54:48;8.77;;;4.72;;
79583;SDS011;69053;57.338;18.700;2023-05-10T05:59:49;5.63;;;3.58;;
79583;SDS011;69053;57.338;18.700;2023-05-10T06:04:50;6.60;;;3.72;;
79583;SDS011;69053;57.338;18.700;2023-05-10T06:09:50;5.63;;;3.30;;
79583;SDS011;69053;57.338;18.700;2023-05-10T06:14:51;7.00;;;3.30;;
79583;SDS011;69053;57.338;18.700;2023-05-10T06:19:51;6.72;;;3.40;;
79583;SDS011;69053;57.338;18.700;2023-05-10T06:24:52;7.53;;;3.47;;
79583;SDS011;69053;57.338;18.700;2023-05-10T06:29:52;6.63;;;4.30;;
79583;SDS011;69053;57.338;18.700;2023-05-10T06:34:54;5.47;;;3.65;;
79583;SDS011;69053;57.338;18.700;2023-05-10T06:39:54;6.15;;;3.15;;
79583;SDS011;69053;57.338;18.700;2023-05-10T06:44:55;5.50;;;3.25;;
79583;SDS011;69053;57.338;18.700;2023-05-10T06:49:55;6.47;;;3.58;;
79583;SDS011;69053;57.338;18.700;2023-05-10T06:54:56;6.03;;;3.65;;
79583;SDS011;69053;57.338;18.700;2023-05-10T07:00:00;5.82;;;3.50;;
79583;SDS011;69053;57.338;18.700;2023-05-10T07:05:01;7.63;;;3.80;;
79583;SDS011;69053;57.338;18.700;2023-05-10T07:10:02;5.53;;;3.67;;
79583;SDS011;69053;57.338;18.700;2023-05-10T07:15:03;5.22;;;2.88;;
79583;SDS011;69053;57.338;18.700;2023-05-10T07:25:15;7.50;;;3.30;;
79583;SDS011;69053;57.338;18.700;2023-05-10T07:30:15;4.85;;;3.60;;
79583;SDS011;69053;57.338;18.700;2023-05-10T07:35:16;6.60;;;3.95;;
79583;SDS011;69053;57.338;18.700;2023-05-10T07:40:17;8.20;;;4.35;;
79583;SDS011;69053;57.338;18.700;2023-05-10T07:45:21;9.30;;;3.72;;
79583;SDS011;69053;57.338;18.700;2023-05-10T07:50:22;7.70;;;3.70;;
79583;SDS011;69053;57.338;18.700;2023-05-10T07:55:22;7.00;;;3.80;;
79583;SDS011;69053;57.338;18.700;2023-05-10T08:00:23;6.18;;;3.70;;
79583;SDS011;69053;57.338;18.700;2023-05-10T08:05:23;6.15;;;3.47;;
79583;SDS011;69053;57.338;18.700;2023-05-10T08:10:24;7.68;;;3.63;;
79583;SDS011;69053;57.338;18.700;2023-05-10T08:15:24;6.85;;;3.50;;
79583;SDS011;69053;57.338;18.700;2023-05-10T08:20:25;5.75;;;3.63;;
79583;SDS011;69053;57.338;18.700;2023-05-10T08:25:26;5.50;;;3.90;;
79583;SDS011;69053;57.338;18.700;2023-05-10T08:30:26;6.32;;;3.95;;
79583;SDS011;69053;57.338;18.700;2023-05-10T08:35:27;6.03;;;3.85;;
79583;SDS011;69053;57.338;18.700;2023-05-10T08:40:27;6.85;;;3.67;;
79583;SDS011;69053;57.338;18.700;2023-05-10T08:45:28;4.97;;;3.90;;
79583;SDS011;69053;57.338;18.700;2023-05-10T08:50:34;4.50;;;3.28;;
79583;SDS011;69053;57.338;18.700;2023-05-10T08:55:36;5.22;;;3.65;;
79583;SDS011;69053;57.338;18.700;2023-05-10T09:00:38;7.88;;;4.60;;
79583;SDS011;69053;57.338;18.700;2023-05-10T09:05:39;6.35;;;3.80;;
79583;SDS011;69053;57.338;18.700;2023-05-10T09:10:42;5.45;;;3.92;;
79583;SDS011;69053;57.338;18.700;2023-05-10T09:15:44;6.18;;;4.00;;
79583;SDS011;69053;57.338;18.700;2023-05-10T09:20:45;9.55;;;4.35;;
79583;SDS011;69053;57.338;18.700;2023-05-10T09:25:46;6.70;;;3.70;;
79583;SDS011;69053;57.338;18.700;2023-05-10T09:30:47;5.80;;;4.22;;
79583;SDS011;69053;57.338;18.700;2023-05-10T09:35:53;5.10;;;3.67;;
79583;SDS011;69053;57.338;18.700;2023-05-10T09:40:53;5.13;;;3.47;;
79583;SDS011;69053;57.338;18.700;2023-05-10T09:45:54;8.60;;;4.32;;
79583;SDS011;69053;57.338;18.700;2023-05-10T09:50:57;5.30;;;3.55;;
79583;SDS011;69053;57.338;18.700;2023-05-10T09:55:58;7.07;;;4.00;;
79583;SDS011;69053;57.338;18.700;2023-05-10T10:00:58;10.23;;;4.00;;
79583;SDS011;69053;57.338;18.700;2023-05-10T10:05:59;6.53;;;4.57;;
79583;SDS011;69053;57.338;18.700;2023-05-10T10:10:59;7.00;;;4.20;;
79583;SDS011;69053;57.338;18.700;2023-05-10T10:16:36;5.72;;;3.80;;
79583;SDS011;69053;57.338;18.700;2023-05-10T10:26:37;6.32;;;3.55;;
79583;SDS011;69053;57.338;18.700;2023-05-10T10:37:09;5.97;;;4.15;;
79583;SDS011;69053;57.338;18.700;2023-05-10T10:42:10;7.38;;;4.10;;
79583;SDS011;69053;57.338;18.700;2023-05-10T10:52:33;6.32;;;4.18;;
79583;SDS011;69053;57.338;18.700;2023-05-10T10:57:48;6.30;;;3.97;;
79583;SDS011;69053;57.338;18.700;2023-05-10T11:03:03;5.63;;;3.38;;
79583;SDS011;69053;57.338;18.700;2023-05-10T11:13:10;4.90;;;3.50;;
79583;SDS011;69053;57.338;18.700;2023-05-10T11:18:20;4.53;;;3.47;;
79583;SDS011;69053;57.338;18.700;2023-05-10T11:23:23;4.60;;;2.90;;
79583;SDS011;69053;57.338;18.700;2023-05-10T11:28:29;4.32;;;3.00;;
79583;SDS011;69053;57.338;18.700;2023-05-10T11:33:30;4.35;;;3.22;;
79583;SDS011;69053;57.338;18.700;2023-05-10T11:38:42;5.63;;;3.05;;
79583;SDS011;69053;57.338;18.700;2023-05-10T11:43:42;4.57;;;3.33;;
79583;SDS011;69053;57.338;18.700;2023-05-10T11:48:45;4.20;;;3.17;;
79583;SDS011;69053;57.338;18.700;2023-05-10T11:53:47;6.93;;;3.15;;
79583;SDS011;69053;57.338;18.700;2023-05-10T11:58:55;4.93;;;3.25;;
79583;SDS011;69053;57.338;18.700;2023-05-10T12:03:57;5.63;;;3.47;;
79583;SDS011;69053;57.338;18.700;2023-05-10T12:09:02;5.80;;;3.47;;
79583;SDS011;69053;57.338;18.700;2023-05-10T12:14:08;5.45;;;3.30;;
79583;SDS011;69053;57.338;18.700;2023-05-10T12:19:09;6.15;;;3.90;;
79583;SDS011;69053;57.338;18.700;2023-05-10T12:24:09;7.68;;;3.28;;
79583;SDS011;69053;57.338;18.700;2023-05-10T12:29:17;7.35;;;3.85;;
79583;SDS011;69053;57.338;18.700;2023-05-10T12:34:22;7.75;;;3.90;;
79583;SDS011;69053;57.338;18.700;2023-05-10T12:39:43;4.85;;;3.45;;
79583;SDS011;69053;57.338;18.700;2023-05-10T12:44:44;7.05;;;4.18;;
79583;SDS011;69053;57.338;18.700;2023-05-10T12:49:45;6.20;;;4.32;;
79583;SDS011;69053;57.338;18.700;2023-05-10T12:54:46;6.38;;;4.25;;
79583;SDS011;69053;57.338;18.700;2023-05-10T12:59:47;4.95;;;4.25;;
79583;SDS011;69053;57.338;18.700;2023-05-10T13:04:47;5.15;;;3.75;;
79583;SDS011;69053;57.338;18.700;2023-05-10T13:09:48;4.90;;;3.88;;
79583;SDS011;69053;57.338;18.700;2023-05-10T13:14:49;6.88;;;3.90;;
79583;SDS011;69053;57.338;18.700;2023-05-10T13:19:49;4.75;;;3.67;;
79583;SDS011;69053;57.338;18.700;2023-05-10T13:24:50;5.15;;;4.30;;
79583;SDS011;69053;57.338;18.700;2023-05-10T13:29:50;5.60;;;3.72;;
79583;SDS011;69053;57.338;18.700;2023-05-10T13:34:51;5.20;;;3.22;;
79583;SDS011;69053;57.338;18.700;2023-05-10T13:39:52;5.30;;;3.25;;
79583;SDS011;69053;57.338;18.700;2023-05-10T13:44:52;4.38;;;3.42;;
79583;SDS011;69053;57.338;18.700;2023-05-10T13:49:53;5.32;;;3.72;;
79583;SDS011;69053;57.338;18.700;2023-05-10T13:54:54;6.97;;;3.67;;
79583;SDS011;69053;57.338;18.700;2023-05-10T13:59:55;5.45;;;3.20;;
79583;SDS011;69053;57.338;18.700;2023-05-10T14:04:57;5.82;;;3.47;;
79583;SDS011;69053;57.338;18.700;2023-05-10T14:09:57;4.30;;;2.97;;
79583;SDS011;69053;57.338;18.700;2023-05-10T14:14:58;5.93;;;3.00;;
79583;SDS011;69053;57.338;18.700;2023-05-10T14:19:59;5.18;;;2.15;;
79583;SDS011;69053;57.338;18.700;2023-05-10T14:24:59;4.13;;;2.60;;
79583;SDS011;69053;57.338;18.700;2023-05-10T14:30:00;3.33;;;2.20;;
79583;SDS011;69053;57.338;18.700;2023-05-10T14:35:01;5.07;;;2.63;;
79583;SDS011;69053;57.338;18.700;2023-05-10T14:40:01;2.42;;;2.00;;
79583;SDS011;69053;57.338;18.700;2023-05-10T14:45:04;3.97;;;2.20;;
79583;SDS011;69053;57.338;18.700;2023-05-10T14:50:05;2.97;;;2.22;;
79583;SDS011;69053;57.338;18.700;2023-05-10T14:55:06;4.90;;;2.28;;
79583;SDS011;69053;57.338;18.700;2023-05-10T15:00:07;3.70;;;2.53;;
79583;SDS011;69053;57.338;18.700;2023-05-10T15:05:09;4.82;;;2.28;;
79583;SDS011;69053;57.338;18.700;2023-05-10T15:10:22;3.60;;;2.17;;
79583;SDS011;69053;57.338;18.700;2023-05-10T15:15:26;4.15;;;2.70;;
79583;SDS011;69053;57.338;18.700;2023-05-10T15:20:26;4.68;;;2.60;;
79583;SDS011;69053;57.338;18.700;2023-05-10T15:25:27;3.58;;;2.25;;
79583;SDS011;69053;57.338;18.700;2023-05-10T15:30:28;3.85;;;2.30;;
79583;SDS011;69053;57.338;18.700;2023-05-10T15:35:29;3.40;;;2.40;;
79583;SDS011;69053;57.338;18.700;2023-05-10T15:40:29;3.30;;;2.55;;
79583;SDS011;69053;57.338;18.700;2023-05-10T15:45:30;3.33;;;2.65;;
79583;SDS011;69053;57.338;18.700;2023-05-10T15:50:33;3.63;;;2.78;;
79583;SDS011;69053;57.338;18.700;2023-05-10T15:55:34;5.82;;;3.17;;
79583;SDS011;69053;57.338;18.700;2023-05-10T16:00:35;6.70;;;3.22;;
79583;SDS011;69053;57.338;18.700;2023-05-10T16:05:35;5.32;;;3.63;;
79583;SDS011;69053;57.338;18.700;2023-05-10T16:10:36;5.43;;;3.00;;
79583;SDS011;69053;57.338;18.700;2023-05-10T16:15:37;3.95;;;2.95;;
79583;SDS011;69053;57.338;18.700;2023-05-10T16:20:37;6.25;;;3.13;;
79583;SDS011;69053;57.338;18.700;2023-05-10T16:25:38;5.10;;;3.28;;
79583;SDS011;69053;57.338;18.700;2023-05-10T16:30:38;5.15;;;3.00;;
79583;SDS011;69053;57.338;18.700;2023-05-10T16:35:39;4.47;;;3.10;;
79583;SDS011;69053;57.338;18.700;2023-05-10T16:40:40;4.75;;;3.80;;
79583;SDS011;69053;57.338;18.700;2023-05-10T16:45:40;6.15;;;4.05;;
79583;SDS011;69053;57.338;18.700;2023-05-10T16:50:44;7.45;;;4.75;;
79583;SDS011;69053;57.338;18.700;2023-05-10T16:55:44;5.32;;;4.38;;
79583;SDS011;69053;57.338;18.700;2023-05-10T17:00:45;6.65;;;4.63;;
79583;SDS011;69053;57.338;18.700;2023-05-10T17:05:45;6.80;;;5.07;;
79583;SDS011;69053;57.338;18.700;2023-05-10T17:10:46;8.55;;;4.38;;
79583;SDS011;69053;57.338;18.700;2023-05-10T17:15:47;6.20;;;3.92;;
79583;SDS011;69053;57.338;18.700;2023-05-10T17:20:47;9.25;;;4.95;;
79583;SDS011;69053;57.338;18.700;2023-05-10T17:25:48;8.20;;;4.32;;
79583;SDS011;69053;57.338;18.700;2023-05-10T17:30:54;5.95;;;3.90;;
79583;SDS011;69053;57.338;18.700;2023-05-10T17:35:56;5.93;;;4.32;;
79583;SDS011;69053;57.338;18.700;2023-05-10T17:40:57;6.22;;;4.03;;
79583;SDS011;69053;57.338;18.700;2023-05-10T17:45:57;5.13;;;3.58;;
79583;SDS011;69053;57.338;18.700;2023-05-10T17:50:58;5.25;;;3.65;;
79583;SDS011;69053;57.338;18.700;2023-05-10T17:55:58;5.20;;;3.55;;
79583;SDS011;69053;57.338;18.700;2023-05-10T18:01:00;5.15;;;3.60;;
79583;SDS011;69053;57.338;18.700;2023-05-10T18:06:03;6.57;;;3.60;;
79583;SDS011;69053;57.338;18.700;2023-05-10T18:11:04;6.75;;;3.35;;
79583;SDS011;69053;57.338;18.700;2023-05-10T18:16:04;5.07;;;3.35;;
79583;SDS011;69053;57.338;18.700;2023-05-10T18:21:07;5.30;;;3.25;;
79583;SDS011;69053;57.338;18.700;2023-05-10T18:26:08;5.38;;;3.88;;
79583;SDS011;69053;57.338;18.700;2023-05-10T18:31:08;4.35;;;3.55;;
79583;SDS011;69053;57.338;18.700;2023-05-10T18:36:10;8.32;;;3.22;;
79583;SDS011;69053;57.338;18.700;2023-05-10T18:41:10;4.15;;;2.92;;
79583;SDS011;69053;57.338;18.700;2023-05-10T18:46:13;6.10;;;2.90;;
79583;SDS011;69053;57.338;18.700;2023-05-10T18:51:14;5.68;;;2.97;;
79583;SDS011;69053;57.338;18.700;2023-05-10T18:56:14;5.60;;;3.03;;
79583;SDS011;69053;57.338;18.700;2023-05-10T19:01:18;3.78;;;2.67;;
79583;SDS011;69053;57.338;18.700;2023-05-10T19:06:18;5.40;;;3.03;;
79583;SDS011;69053;57.338;18.700;2023-05-10T19:11:19;4.68;;;2.72;;
79583;SDS011;69053;57.338;18.700;2023-05-10T19:16:21;3.60;;;2.63;;
79583;SDS011;69053;57.338;18.700;2023-05-10T19:21:21;6.57;;;4.10;;
79583;SDS011;69053;57.338;18.700;2023-05-10T19:26:22;5.30;;;2.92;;
79583;SDS011;69053;57.338;18.700;2023-05-10T19:31:23;3.90;;;2.38;;
79583;SDS011;69053;57.338;18.700;2023-05-10T19:36:23;5.72;;;2.67;;
79583;SDS011;69053;57.338;18.700;2023-05-10T19:41:24;4.95;;;2.78;;
79583;SDS011;69053;57.338;18.700;2023-05-10T19:46:24;6.22;;;2.70;;
79583;SDS011;69053;57.338;18.700;2023-05-10T19:51:25;4.22;;;2.85;;
79583;SDS011;69053;57.338;18.700;2023-05-10T19:56:26;5.50;;;2.75;;
79583;SDS011;69053;57.338;18.700;2023-05-10T20:01:27;5.22;;;2.72;;
79583;SDS011;69053;57.338;18.700;2023-05-10T20:06:28;3.30;;;2.42;;
79583;SDS011;69053;57.338;18.700;2023-05-10T20:11:30;3.45;;;2.30;;
79583;SDS011;69053;57.338;18.700;2023-05-10T20:16:31;3.35;;;2.40;;
79583;SDS011;69053;57.338;18.700;2023-05-10T20:21:31;5.07;;;3.05;;
79583;SDS011;69053;57.338;18.700;2023-05-10T20:26:32;3.42;;;2.22;;
79583;SDS011;69053;57.338;18.700;2023-05-10T20:31:33;5.18;;;2.60;;
79583;SDS011;69053;57.338;18.700;2023-05-10T20:36:33;5.00;;;2.22;;
79583;SDS011;69053;57.338;18.700;2023-05-10T20:41:36;7.43;;;2.47;;
79583;SDS011;69053;57.338;18.700;2023-05-10T20:46:38;4.30;;;2.80;;
79583;SDS011;69053;57.338;18.700;2023-05-10T20:51:38;4.50;;;2.65;;
79583;SDS011;69053;57.338;18.700;2023-05-10T20:56:39;7.00;;;2.20;;
79583;SDS011;69053;57.338;18.700;2023-05-10T21:01:39;3.88;;;2.50;;
79583;SDS011;69053;57.338;18.700;2023-05-10T21:06:40;8.65;;;4.70;;
79583;SDS011;69053;57.338;18.700;2023-05-10T21:11:42;5.75;;;2.38;;
79583;SDS011;69053;57.338;18.700;2023-05-10T21:16:43;5.97;;;2.47;;
79583;SDS011;69053;57.338;18.700;2023-05-10T21:21:43;4.30;;;2.55;;
79583;SDS011;69053;57.338;18.700;2023-05-10T21:26:44;5.53;;;2.75;;
79583;SDS011;69053;57.338;18.700;2023-05-10T21:31:45;5.90;;;3.05;;
79583;SDS011;69053;57.338;18.700;2023-05-10T21:36:45;5.40;;;2.75;;
79583;SDS011;69053;57.338;18.700;2023-05-10T21:41:45;4.28;;;2.70;;
79583;SDS011;69053;57.338;18.700;2023-05-10T21:46:46;5.07;;;2.40;;
79583;SDS011;69053;57.338;18.700;2023-05-10T21:51:47;4.85;;;2.05;;
79583;SDS011;69053;57.338;18.700;2023-05-10T21:56:48;4.32;;;2.17;;
79583;SDS011;69053;57.338;18.700;2023-05-10T22:01:51;5.30;;;2.85;;
79583;SDS011;69053;57.338;18.700;2023-05-10T22:06:52;4.70;;;3.13;;
79583;SDS011;69053;57.338;18.700;2023-05-10T22:11:52;5.82;;;2.60;;
79583;SDS011;69053;57.338;18.700;2023-05-10T22:16:53;4.82;;;2.63;;
79583;SDS011;69053;57.338;18.700;2023-05-10T22:21:53;3.28;;;2.15;;
79583;SDS011;69053;57.338;18.700;2023-05-10T22:26:54;5.18;;;2.40;;
79583;SDS011;69053;57.338;18.700;2023-05-10T22:31:55;4.20;;;2.38;;
79583;SDS011;69053;57.338;18.700;2023-05-10T22:36:56;4.63;;;2.33;;
79583;SDS011;69053;57.338;18.700;2023-05-10T22:41:58;6.30;;;2.75;;
79583;SDS011;69053;57.338;18.700;2023-05-10T22:46:59;3.28;;;1.83;;
79583;SDS011;69053;57.338;18.700;2023-05-10T22:51:59;4.03;;;2.70;;
79583;SDS011;69053;57.338;18.700;2023-05-10T22:57:00;3.33;;;2.17;;
79583;SDS011;69053;57.338;18.700;2023-05-10T23:02:00;5.82;;;3.05;;
79583;SDS011;69053;57.338;18.700;2023-05-10T23:07:01;4.68;;;3.05;;
79583;SDS011;69053;57.338;18.700;2023-05-10T23:12:02;4.57;;;2.42;;
79583;SDS011;69053;57.338;18.700;2023-05-10T23:17:02;7.03;;;2.45;;
79583;SDS011;69053;57.338;18.700;2023-05-10T23:22:03;5.28;;;2.35;;
79583;SDS011;69053;57.338;18.700;2023-05-10T23:27:04;4.88;;;2.78;;
79583;SDS011;69053;57.338;18.700;2023-05-10T23:32:04;7.50;;;2.70;;
79583;SDS011;69053;57.338;18.700;2023-05-10T23:37:05;3.85;;;2.38;;
79583;SDS011;69053;57.338;18.700;2023-05-10T23:42:05;4.97;;;2.92;;
79583;SDS011;69053;57.338;18.700;2023-05-10T23:47:06;2.92;;;2.13;;
79583;SDS011;69053;57.338;18.700;2023-05-10T23:52:07;4.72;;;2.72;;
79583;SDS011;69053;57.338;18.700;2023-05-10T23:57:07;4.88;;;2.47;;
